sensor_id;sensor_type;location;lat;lon;timestamp;temperature;humidity
65058;HTU21D;51644;51.068;5.860;2022-10-18T00:00:21;16.77;87.35
65058;HTU21D;51644;51.068;5.860;2022-10-18T00:01:19;16.76;87.42
65058;HTU21D;51644;51.068;5.860;2022-10-18T00:02:18;16.77;87.41
65058;HTU21D;51644;51.068;5.860;2022-10-18T00:03:17;16.76;87.37
65058;HTU21D;51644;51.068;5.860;2022-10-18T00:04:16;16.75;87.40
65058;HTU21D;51644;51.068;5.860;2022-10-18T00:05:14;16.76;87.41
65058;HTU21D;51644;51.068;5.860;2022-10-18T00:06:13;16.75;87.41
65058;HTU21D;51644;51.068;5.860;2022-10-18T00:07:12;16.74;87.42
65058;HTU21D;51644;51.068;5.860;2022-10-18T00:08:15;16.74;87.44
65058;HTU21D;51644;51.068;5.860;2022-10-18T00:09:15;16.75;87.46
65058;HTU21D;51644;51.068;5.860;2022-10-18T00:10:14;16.76;87.42
65058;HTU21D;51644;51.068;5.860;2022-10-18T00:11:12;16.77;87.37
65058;HTU21D;51644;51.068;5.860;2022-10-18T00:12:11;16.77;87.31
65058;HTU21D;51644;51.068;5.860;2022-10-18T00:13:23;16.79;87.17
65058;HTU21D;51644;51.068;5.860;2022-10-18T00:14:22;16.78;87.06
65058;HTU21D;51644;51.068;5.860;2022-10-18T00:15:20;16.80;86.96
65058;HTU21D;51644;51.068;5.860;2022-10-18T00:16:19;16.79;86.93
65058;HTU21D;51644;51.068;5.860;2022-10-18T00:17:17;16.79;86.93
65058;HTU21D;51644;51.068;5.860;2022-10-18T00:18:17;16.78;86.95
65058;HTU21D;51644;51.068;5.860;2022-10-18T00:19:16;16.77;86.98
65058;HTU21D;51644;51.068;5.860;2022-10-18T00:20:14;16.77;87.03
65058;HTU21D;51644;51.068;5.860;2022-10-18T00:21:16;16.74;87.13
65058;HTU21D;51644;51.068;5.860;2022-10-18T00:22:18;16.73;87.24
65058;HTU21D;51644;51.068;5.860;2022-10-18T00:23:16;16.71;87.28
65058;HTU21D;51644;51.068;5.860;2022-10-18T00:24:15;16.70;87.38
65058;HTU21D;51644;51.068;5.860;2022-10-18T00:25:14;16.64;87.61
65058;HTU21D;51644;51.068;5.860;2022-10-18T00:26:19;16.61;87.86
65058;HTU21D;51644;51.068;5.860;2022-10-18T00:27:18;16.60;88.00
65058;HTU21D;51644;51.068;5.860;2022-10-18T00:28:17;16.59;88.12
65058;HTU21D;51644;51.068;5.860;2022-10-18T00:29:15;16.57;88.22
65058;HTU21D;51644;51.068;5.860;2022-10-18T00:30:17;16.57;88.32
65058;HTU21D;51644;51.068;5.860;2022-10-18T00:31:30;16.56;88.37
65058;HTU21D;51644;51.068;5.860;2022-10-18T00:32:29;16.56;88.41
65058;HTU21D;51644;51.068;5.860;2022-10-18T00:33:28;16.56;88.38
65058;HTU21D;51644;51.068;5.860;2022-10-18T00:34:29;16.57;88.37
65058;HTU21D;51644;51.068;5.860;2022-10-18T00:35:28;16.58;88.33
65058;HTU21D;51644;51.068;5.860;2022-10-18T00:36:28;16.58;88.26
65058;HTU21D;51644;51.068;5.860;2022-10-18T00:37:27;16.58;88.25
65058;HTU21D;51644;51.068;5.860;2022-10-18T00:38:26;16.58;88.22
65058;HTU21D;51644;51.068;5.860;2022-10-18T00:39:24;16.60;88.22
65058;HTU21D;51644;51.068;5.860;2022-10-18T00:40:23;16.60;88.25
65058;HTU21D;51644;51.068;5.860;2022-10-18T00:41:27;16.61;88.22
65058;HTU21D;51644;51.068;5.860;2022-10-18T00:42:30;16.63;88.10
65058;HTU21D;51644;51.068;5.860;2022-10-18T00:43:30;16.63;88.02
65058;HTU21D;51644;51.068;5.860;2022-10-18T00:45:27;16.59;88.11
65058;HTU21D;51644;51.068;5.860;2022-10-18T00:46:28;16.57;88.23
65058;HTU21D;51644;51.068;5.860;2022-10-18T00:47:28;16.55;88.39
65058;HTU21D;51644;51.068;5.860;2022-10-18T00:48:27;16.50;88.56
65058;HTU21D;51644;51.068;5.860;2022-10-18T00:49:35;16.50;88.73
65058;HTU21D;51644;51.068;5.860;2022-10-18T00:50:35;16.49;88.89
65058;HTU21D;51644;51.068;5.860;2022-10-18T00:51:41;16.48;89.02
65058;HTU21D;51644;51.068;5.860;2022-10-18T00:52:48;16.48;89.08
65058;HTU21D;51644;51.068;5.860;2022-10-18T00:53:49;16.47;89.15
65058;HTU21D;51644;51.068;5.860;2022-10-18T00:54:49;16.45;89.23
65058;HTU21D;51644;51.068;5.860;2022-10-18T00:55:49;16.45;89.28
65058;HTU21D;51644;51.068;5.860;2022-10-18T00:56:48;16.44;89.31
65058;HTU21D;51644;51.068;5.860;2022-10-18T00:57:48;16.45;89.35
65058;HTU21D;51644;51.068;5.860;2022-10-18T00:58:48;16.43;89.37
65058;HTU21D;51644;51.068;5.860;2022-10-18T00:59:48;16.41;89.46
65058;HTU21D;51644;51.068;5.860;2022-10-18T01:00:47;16.40;89.56
65058;HTU21D;51644;51.068;5.860;2022-10-18T01:01:47;16.39;89.66
65058;HTU21D;51644;51.068;5.860;2022-10-18T01:02:46;16.39;89.73
65058;HTU21D;51644;51.068;5.860;2022-10-18T01:03:45;16.35;89.85
65058;HTU21D;51644;51.068;5.860;2022-10-18T01:04:49;16.34;89.98
65058;HTU21D;51644;51.068;5.860;2022-10-18T01:05:48;16.34;90.07
65058;HTU21D;51644;51.068;5.860;2022-10-18T01:12:13;16.26;90.51
65058;HTU21D;51644;51.068;5.860;2022-10-18T01:13:34;16.24;90.58
65058;HTU21D;51644;51.068;5.860;2022-10-18T01:14:51;16.22;90.66
65058;HTU21D;51644;51.068;5.860;2022-10-18T01:20:08;16.20;90.81
65058;HTU21D;51644;51.068;5.860;2022-10-18T01:22:37;16.25;90.84
65058;HTU21D;51644;51.068;5.860;2022-10-18T01:23:55;16.26;90.86
65058;HTU21D;51644;51.068;5.860;2022-10-18T01:26:54;16.26;90.82
65058;HTU21D;51644;51.068;5.860;2022-10-18T01:27:56;16.25;90.89
65058;HTU21D;51644;51.068;5.860;2022-10-18T01:29:20;16.26;90.91
65058;HTU21D;51644;51.068;5.860;2022-10-18T01:30:47;16.24;91.03
65058;HTU21D;51644;51.068;5.860;2022-10-18T01:31:57;16.25;91.10
65058;HTU21D;51644;51.068;5.860;2022-10-18T01:34:19;16.25;91.17
65058;HTU21D;51644;51.068;5.860;2022-10-18T01:35:24;16.24;91.27
65058;HTU21D;51644;51.068;5.860;2022-10-18T01:36:32;16.25;91.27
65058;HTU21D;51644;51.068;5.860;2022-10-18T01:37:35;16.26;91.29
65058;HTU21D;51644;51.068;5.860;2022-10-18T01:38:37;16.28;91.37
65058;HTU21D;51644;51.068;5.860;2022-10-18T01:39:44;16.28;91.38
65058;HTU21D;51644;51.068;5.860;2022-10-18T01:40:46;16.29;91.30
65058;HTU21D;51644;51.068;5.860;2022-10-18T01:41:48;16.30;91.27
65058;HTU21D;51644;51.068;5.860;2022-10-18T01:42:49;16.32;91.27
65058;HTU21D;51644;51.068;5.860;2022-10-18T01:43:54;16.33;91.21
65058;HTU21D;51644;51.068;5.860;2022-10-18T01:44:54;16.34;91.17
65058;HTU21D;51644;51.068;5.860;2022-10-18T01:45:54;16.37;91.09
65058;HTU21D;51644;51.068;5.860;2022-10-18T01:46:55;16.39;91.02
65058;HTU21D;51644;51.068;5.860;2022-10-18T01:47:55;16.39;90.95
65058;HTU21D;51644;51.068;5.860;2022-10-18T01:48:55;16.40;90.95
65058;HTU21D;51644;51.068;5.860;2022-10-18T01:50:01;16.41;90.90
65058;HTU21D;51644;51.068;5.860;2022-10-18T01:51:04;16.41;90.88
65058;HTU21D;51644;51.068;5.860;2022-10-18T01:52:05;16.39;90.90
65058;HTU21D;51644;51.068;5.860;2022-10-18T01:53:04;16.39;90.95
65058;HTU21D;51644;51.068;5.860;2022-10-18T01:54:09;16.37;90.98
65058;HTU21D;51644;51.068;5.860;2022-10-18T01:55:09;16.37;91.05
65058;HTU21D;51644;51.068;5.860;2022-10-18T01:57:37;16.40;91.05
65058;HTU21D;51644;51.068;5.860;2022-10-18T01:59:55;16.43;91.01
65058;HTU21D;51644;51.068;5.860;2022-10-18T02:01:18;16.44;90.94
65058;HTU21D;51644;51.068;5.860;2022-10-18T02:02:40;16.45;90.91
65058;HTU21D;51644;51.068;5.860;2022-10-18T02:03:45;16.47;90.80
65058;HTU21D;51644;51.068;5.860;2022-10-18T02:04:50;16.48;90.76
65058;HTU21D;51644;51.068;5.860;2022-10-18T02:07:22;16.49;90.64
65058;HTU21D;51644;51.068;5.860;2022-10-18T02:08:24;16.52;90.61
65058;HTU21D;51644;51.068;5.860;2022-10-18T02:09:37;16.56;90.51
65058;HTU21D;51644;51.068;5.860;2022-10-18T02:12:11;16.60;90.36
65058;HTU21D;51644;51.068;5.860;2022-10-18T02:13:17;16.61;90.32
65058;HTU21D;51644;51.068;5.860;2022-10-18T02:14:18;16.63;90.24
65058;HTU21D;51644;51.068;5.860;2022-10-18T02:15:22;16.65;90.18
65058;HTU21D;51644;51.068;5.860;2022-10-18T02:16:36;16.65;90.14
65058;HTU21D;51644;51.068;5.860;2022-10-18T02:17:38;16.69;90.10
65058;HTU21D;51644;51.068;5.860;2022-10-18T02:18:48;16.67;90.06
65058;HTU21D;51644;51.068;5.860;2022-10-18T02:19:52;16.69;90.08
65058;HTU21D;51644;51.068;5.860;2022-10-18T02:20:53;16.70;90.12
65058;HTU21D;51644;51.068;5.860;2022-10-18T02:21:54;16.72;90.10
65058;HTU21D;51644;51.068;5.860;2022-10-18T02:22:56;16.72;90.07
65058;HTU21D;51644;51.068;5.860;2022-10-18T02:24:02;16.74;90.07
65058;HTU21D;51644;51.068;5.860;2022-10-18T02:25:07;16.75;90.12
65058;HTU21D;51644;51.068;5.860;2022-10-18T02:26:07;16.76;90.10
65058;HTU21D;51644;51.068;5.860;2022-10-18T02:27:07;16.76;90.10
65058;HTU21D;51644;51.068;5.860;2022-10-18T02:28:06;16.76;90.04
65058;HTU21D;51644;51.068;5.860;2022-10-18T02:29:06;16.74;90.02
65058;HTU21D;51644;51.068;5.860;2022-10-18T02:30:05;16.72;90.06
65058;HTU21D;51644;51.068;5.860;2022-10-18T02:32:55;16.66;90.39
65058;HTU21D;51644;51.068;5.860;2022-10-18T02:34:01;16.66;90.52
65058;HTU21D;51644;51.068;5.860;2022-10-18T02:36:49;16.69;90.54
65058;HTU21D;51644;51.068;5.860;2022-10-18T02:37:49;16.71;90.53
65058;HTU21D;51644;51.068;5.860;2022-10-18T02:38:56;16.72;90.48
65058;HTU21D;51644;51.068;5.860;2022-10-18T02:39:56;16.73;90.45
65058;HTU21D;51644;51.068;5.860;2022-10-18T02:40:55;16.74;90.41
65058;HTU21D;51644;51.068;5.860;2022-10-18T02:41:55;16.74;90.44
65058;HTU21D;51644;51.068;5.860;2022-10-18T02:42:56;16.75;90.47
65058;HTU21D;51644;51.068;5.860;2022-10-18T02:43:55;16.75;90.49
65058;HTU21D;51644;51.068;5.860;2022-10-18T02:44:54;16.76;90.47
65058;HTU21D;51644;51.068;5.860;2022-10-18T02:45:53;16.77;90.42
65058;HTU21D;51644;51.068;5.860;2022-10-18T02:46:52;16.79;90.37
65058;HTU21D;51644;51.068;5.860;2022-10-18T02:47:51;16.80;90.31
65058;HTU21D;51644;51.068;5.860;2022-10-18T02:48:50;16.81;90.27
65058;HTU21D;51644;51.068;5.860;2022-10-18T02:49:48;16.82;90.20
65058;HTU21D;51644;51.068;5.860;2022-10-18T02:50:47;16.84;90.10
65058;HTU21D;51644;51.068;5.860;2022-10-18T02:51:45;16.86;90.01
65058;HTU21D;51644;51.068;5.860;2022-10-18T02:52:44;16.87;89.95
65058;HTU21D;51644;51.068;5.860;2022-10-18T02:53:42;16.89;89.94
65058;HTU21D;51644;51.068;5.860;2022-10-18T02:54:41;16.89;89.89
65058;HTU21D;51644;51.068;5.860;2022-10-18T02:55:58;16.88;89.85
65058;HTU21D;51644;51.068;5.860;2022-10-18T02:56:57;16.90;89.81
65058;HTU21D;51644;51.068;5.860;2022-10-18T02:57:55;16.90;89.79
65058;HTU21D;51644;51.068;5.860;2022-10-18T02:58:54;16.89;89.79
65058;HTU21D;51644;51.068;5.860;2022-10-18T02:59:53;16.90;89.76
65058;HTU21D;51644;51.068;5.860;2022-10-18T03:00:51;16.90;89.73
65058;HTU21D;51644;51.068;5.860;2022-10-18T03:01:50;16.89;89.75
65058;HTU21D;51644;51.068;5.860;2022-10-18T03:02:48;16.89;89.76
65058;HTU21D;51644;51.068;5.860;2022-10-18T03:03:47;16.90;89.71
65058;HTU21D;51644;51.068;5.860;2022-10-18T03:04:45;16.90;89.69
65058;HTU21D;51644;51.068;5.860;2022-10-18T03:05:51;16.91;89.67
65058;HTU21D;51644;51.068;5.860;2022-10-18T03:06:50;16.91;89.66
65058;HTU21D;51644;51.068;5.860;2022-10-18T03:07:48;16.91;89.66
65058;HTU21D;51644;51.068;5.860;2022-10-18T03:08:47;16.90;89.66
65058;HTU21D;51644;51.068;5.860;2022-10-18T03:09:45;16.90;89.69
65058;HTU21D;51644;51.068;5.860;2022-10-18T03:10:45;16.90;89.66
65058;HTU21D;51644;51.068;5.860;2022-10-18T03:11:43;16.91;89.62
65058;HTU21D;51644;51.068;5.860;2022-10-18T03:12:42;16.91;89.53
65058;HTU21D;51644;51.068;5.860;2022-10-18T03:13:40;16.92;89.47
65058;HTU21D;51644;51.068;5.860;2022-10-18T03:14:39;16.92;89.44
65058;HTU21D;51644;51.068;5.860;2022-10-18T03:15:38;16.92;89.43
65058;HTU21D;51644;51.068;5.860;2022-10-18T03:16:36;16.92;89.40
65058;HTU21D;51644;51.068;5.860;2022-10-18T03:17:35;16.93;89.42
65058;HTU21D;51644;51.068;5.860;2022-10-18T03:18:33;16.94;89.46
65058;HTU21D;51644;51.068;5.860;2022-10-18T03:19:32;16.95;89.45
65058;HTU21D;51644;51.068;5.860;2022-10-18T03:20:32;16.94;89.43
65058;HTU21D;51644;51.068;5.860;2022-10-18T03:21:31;16.93;89.43
65058;HTU21D;51644;51.068;5.860;2022-10-18T03:22:29;16.93;89.43
65058;HTU21D;51644;51.068;5.860;2022-10-18T03:23:28;16.92;89.43
65058;HTU21D;51644;51.068;5.860;2022-10-18T03:24:26;16.92;89.43
65058;HTU21D;51644;51.068;5.860;2022-10-18T03:25:25;16.94;89.41
65058;HTU21D;51644;51.068;5.860;2022-10-18T03:26:24;16.92;89.42
65058;HTU21D;51644;51.068;5.860;2022-10-18T03:27:22;16.91;89.44
65058;HTU21D;51644;51.068;5.860;2022-10-18T03:28:21;16.94;89.50
65058;HTU21D;51644;51.068;5.860;2022-10-18T03:29:19;16.91;89.48
65058;HTU21D;51644;51.068;5.860;2022-10-18T03:30:18;16.91;89.54
65058;HTU21D;51644;51.068;5.860;2022-10-18T03:31:17;16.89;89.58
65058;HTU21D;51644;51.068;5.860;2022-10-18T03:32:15;16.90;89.60
65058;HTU21D;51644;51.068;5.860;2022-10-18T03:33:14;16.90;89.60
65058;HTU21D;51644;51.068;5.860;2022-10-18T03:34:12;16.90;89.55
65058;HTU21D;51644;51.068;5.860;2022-10-18T03:35:11;16.91;89.47
65058;HTU21D;51644;51.068;5.860;2022-10-18T03:36:09;16.93;89.34
65058;HTU21D;51644;51.068;5.860;2022-10-18T03:37:09;16.93;89.27
65058;HTU21D;51644;51.068;5.860;2022-10-18T03:38:07;16.95;89.18
65058;HTU21D;51644;51.068;5.860;2022-10-18T03:39:06;16.95;89.11
65058;HTU21D;51644;51.068;5.860;2022-10-18T03:40:05;16.96;89.07
65058;HTU21D;51644;51.068;5.860;2022-10-18T03:41:04;16.94;89.05
65058;HTU21D;51644;51.068;5.860;2022-10-18T03:42:03;16.94;89.09
65058;HTU21D;51644;51.068;5.860;2022-10-18T03:43:02;16.93;89.12
65058;HTU21D;51644;51.068;5.860;2022-10-18T03:44:00;16.92;89.17
65058;HTU21D;51644;51.068;5.860;2022-10-18T03:44:59;16.92;89.21
65058;HTU21D;51644;51.068;5.860;2022-10-18T03:46:01;16.92;89.26
65058;HTU21D;51644;51.068;5.860;2022-10-18T03:46:59;16.91;89.33
65058;HTU21D;51644;51.068;5.860;2022-10-18T03:47:58;16.89;89.40
65058;HTU21D;51644;51.068;5.860;2022-10-18T03:48:56;16.88;89.47
65058;HTU21D;51644;51.068;5.860;2022-10-18T03:49:55;16.88;89.57
65058;HTU21D;51644;51.068;5.860;2022-10-18T03:50:53;16.86;89.63
65058;HTU21D;51644;51.068;5.860;2022-10-18T03:51:52;16.84;89.70
65058;HTU21D;51644;51.068;5.860;2022-10-18T03:52:54;16.85;89.75
65058;HTU21D;51644;51.068;5.860;2022-10-18T03:53:52;16.84;89.79
65058;HTU21D;51644;51.068;5.860;2022-10-18T03:54:54;16.85;89.80
65058;HTU21D;51644;51.068;5.860;2022-10-18T03:55:54;16.85;89.82
65058;HTU21D;51644;51.068;5.860;2022-10-18T03:56:53;16.86;89.82
65058;HTU21D;51644;51.068;5.860;2022-10-18T03:57:51;16.85;89.81
65058;HTU21D;51644;51.068;5.860;2022-10-18T03:58:50;16.86;89.82
65058;HTU21D;51644;51.068;5.860;2022-10-18T03:59:48;16.86;89.82
65058;HTU21D;51644;51.068;5.860;2022-10-18T04:00:54;16.86;89.86
65058;HTU21D;51644;51.068;5.860;2022-10-18T04:01:52;16.86;89.86
65058;HTU21D;51644;51.068;5.860;2022-10-18T04:02:51;16.87;89.85
65058;HTU21D;51644;51.068;5.860;2022-10-18T04:03:49;16.87;89.83
65058;HTU21D;51644;51.068;5.860;2022-10-18T04:04:48;16.88;89.83
65058;HTU21D;51644;51.068;5.860;2022-10-18T04:05:48;16.89;89.78
65058;HTU21D;51644;51.068;5.860;2022-10-18T04:06:47;16.88;89.76
65058;HTU21D;51644;51.068;5.860;2022-10-18T04:07:45;16.88;89.77
65058;HTU21D;51644;51.068;5.860;2022-10-18T04:08:44;16.87;89.80
65058;HTU21D;51644;51.068;5.860;2022-10-18T04:09:42;16.88;89.82
65058;HTU21D;51644;51.068;5.860;2022-10-18T04:10:42;16.89;89.82
65058;HTU21D;51644;51.068;5.860;2022-10-18T04:11:41;16.89;89.77
65058;HTU21D;51644;51.068;5.860;2022-10-18T04:12:42;16.89;89.71
65058;HTU21D;51644;51.068;5.860;2022-10-18T04:13:41;16.90;89.66
65058;HTU21D;51644;51.068;5.860;2022-10-18T04:14:39;16.90;89.62
65058;HTU21D;51644;51.068;5.860;2022-10-18T04:15:38;16.91;89.57
65058;HTU21D;51644;51.068;5.860;2022-10-18T04:16:36;16.91;89.50
65058;HTU21D;51644;51.068;5.860;2022-10-18T04:17:35;16.92;89.43
65058;HTU21D;51644;51.068;5.860;2022-10-18T04:18:33;16.92;89.40
65058;HTU21D;51644;51.068;5.860;2022-10-18T04:19:32;16.93;89.36
65058;HTU21D;51644;51.068;5.860;2022-10-18T04:20:31;16.92;89.36
65058;HTU21D;51644;51.068;5.860;2022-10-18T04:21:32;16.92;89.41
65058;HTU21D;51644;51.068;5.860;2022-10-18T04:22:31;16.93;89.44
65058;HTU21D;51644;51.068;5.860;2022-10-18T04:23:29;16.92;89.44
65058;HTU21D;51644;51.068;5.860;2022-10-18T04:24:28;16.93;89.48
65058;HTU21D;51644;51.068;5.860;2022-10-18T04:25:26;16.93;89.46
65058;HTU21D;51644;51.068;5.860;2022-10-18T04:26:26;16.95;89.46
65058;HTU21D;51644;51.068;5.860;2022-10-18T04:27:25;16.96;89.45
65058;HTU21D;51644;51.068;5.860;2022-10-18T04:28:26;16.95;89.43
65058;HTU21D;51644;51.068;5.860;2022-10-18T04:29:24;16.95;89.44
65058;HTU21D;51644;51.068;5.860;2022-10-18T04:30:23;16.95;89.43
65058;HTU21D;51644;51.068;5.860;2022-10-18T04:31:21;16.94;89.48
65058;HTU21D;51644;51.068;5.860;2022-10-18T04:32:22;16.93;89.54
65058;HTU21D;51644;51.068;5.860;2022-10-18T04:33:21;16.92;89.58
65058;HTU21D;51644;51.068;5.860;2022-10-18T04:34:23;16.93;89.60
65058;HTU21D;51644;51.068;5.860;2022-10-18T04:35:26;16.93;89.59
65058;HTU21D;51644;51.068;5.860;2022-10-18T04:36:25;16.94;89.60
65058;HTU21D;51644;51.068;5.860;2022-10-18T04:37:24;16.92;89.61
65058;HTU21D;51644;51.068;5.860;2022-10-18T04:38:22;16.92;89.61
65058;HTU21D;51644;51.068;5.860;2022-10-18T04:39:21;16.90;89.66
65058;HTU21D;51644;51.068;5.860;2022-10-18T04:40:20;16.91;89.66
65058;HTU21D;51644;51.068;5.860;2022-10-18T04:41:18;16.90;89.64
65058;HTU21D;51644;51.068;5.860;2022-10-18T04:42:17;16.90;89.65
65058;HTU21D;51644;51.068;5.860;2022-10-18T04:43:16;16.89;89.68
65058;HTU21D;51644;51.068;5.860;2022-10-18T04:44:14;16.89;89.64
65058;HTU21D;51644;51.068;5.860;2022-10-18T04:45:13;16.87;89.69
65058;HTU21D;51644;51.068;5.860;2022-10-18T04:46:11;16.86;89.71
65058;HTU21D;51644;51.068;5.860;2022-10-18T04:47:10;16.86;89.73
65058;HTU21D;51644;51.068;5.860;2022-10-18T04:48:08;16.86;89.73
65058;HTU21D;51644;51.068;5.860;2022-10-18T04:49:07;16.86;89.69
65058;HTU21D;51644;51.068;5.860;2022-10-18T04:50:06;16.85;89.63
65058;HTU21D;51644;51.068;5.860;2022-10-18T04:51:05;16.84;89.62
65058;HTU21D;51644;51.068;5.860;2022-10-18T04:52:03;16.81;89.70
65058;HTU21D;51644;51.068;5.860;2022-10-18T04:53:02;16.81;89.77
65058;HTU21D;51644;51.068;5.860;2022-10-18T04:54:00;16.81;89.82
65058;HTU21D;51644;51.068;5.860;2022-10-18T04:54:59;16.79;89.84
65058;HTU21D;51644;51.068;5.860;2022-10-18T04:55:57;16.79;89.87
65058;HTU21D;51644;51.068;5.860;2022-10-18T04:56:56;16.79;89.93
65058;HTU21D;51644;51.068;5.860;2022-10-18T04:57:55;16.78;89.95
65058;HTU21D;51644;51.068;5.860;2022-10-18T04:58:53;16.76;90.01
65058;HTU21D;51644;51.068;5.860;2022-10-18T04:59:52;16.75;90.05
65058;HTU21D;51644;51.068;5.860;2022-10-18T05:00:50;16.73;90.09
65058;HTU21D;51644;51.068;5.860;2022-10-18T05:01:49;16.72;90.15
65058;HTU21D;51644;51.068;5.860;2022-10-18T05:02:47;16.71;90.23
65058;HTU21D;51644;51.068;5.860;2022-10-18T05:03:51;16.70;90.30
65058;HTU21D;51644;51.068;5.860;2022-10-18T05:04:50;16.70;90.35
65058;HTU21D;51644;51.068;5.860;2022-10-18T05:05:48;16.70;90.37
65058;HTU21D;51644;51.068;5.860;2022-10-18T05:06:47;16.69;90.39
65058;HTU21D;51644;51.068;5.860;2022-10-18T05:07:45;16.67;90.41
65058;HTU21D;51644;51.068;5.860;2022-10-18T05:08:44;16.65;90.42
65058;HTU21D;51644;51.068;5.860;2022-10-18T05:09:43;16.65;90.43
65058;HTU21D;51644;51.068;5.860;2022-10-18T05:10:41;16.65;90.46
65058;HTU21D;51644;51.068;5.860;2022-10-18T05:11:40;16.66;90.43
65058;HTU21D;51644;51.068;5.860;2022-10-18T05:12:38;16.66;90.37
65058;HTU21D;51644;51.068;5.860;2022-10-18T05:13:38;16.62;90.42
65058;HTU21D;51644;51.068;5.860;2022-10-18T05:14:36;16.59;90.53
65058;HTU21D;51644;51.068;5.860;2022-10-18T05:15:35;16.55;90.63
65058;HTU21D;51644;51.068;5.860;2022-10-18T05:16:33;16.52;90.72
65058;HTU21D;51644;51.068;5.860;2022-10-18T05:17:32;16.49;90.82
65058;HTU21D;51644;51.068;5.860;2022-10-18T05:18:31;16.46;90.94
65058;HTU21D;51644;51.068;5.860;2022-10-18T05:19:29;16.47;90.99
65058;HTU21D;51644;51.068;5.860;2022-10-18T05:20:28;16.47;91.02
65058;HTU21D;51644;51.068;5.860;2022-10-18T05:21:26;16.45;91.02
65058;HTU21D;51644;51.068;5.860;2022-10-18T05:22:25;16.45;91.02
65058;HTU21D;51644;51.068;5.860;2022-10-18T05:23:24;16.42;91.14
65058;HTU21D;51644;51.068;5.860;2022-10-18T05:24:22;16.42;91.25
65058;HTU21D;51644;51.068;5.860;2022-10-18T05:25:21;16.42;91.24
65058;HTU21D;51644;51.068;5.860;2022-10-18T05:26:19;16.44;91.18
65058;HTU21D;51644;51.068;5.860;2022-10-18T05:27:18;16.46;91.11
65058;HTU21D;51644;51.068;5.860;2022-10-18T05:28:17;16.49;90.96
65058;HTU21D;51644;51.068;5.860;2022-10-18T05:29:15;16.49;90.93
65058;HTU21D;51644;51.068;5.860;2022-10-18T05:30:14;16.49;90.89
65058;HTU21D;51644;51.068;5.860;2022-10-18T05:31:13;16.51;90.78
65058;HTU21D;51644;51.068;5.860;2022-10-18T05:32:11;16.54;90.65
65058;HTU21D;51644;51.068;5.860;2022-10-18T05:33:10;16.55;90.52
65058;HTU21D;51644;51.068;5.860;2022-10-18T05:34:08;16.57;90.41
65058;HTU21D;51644;51.068;5.860;2022-10-18T05:35:07;16.56;90.29
65058;HTU21D;51644;51.068;5.860;2022-10-18T05:36:07;16.57;90.24
65058;HTU21D;51644;51.068;5.860;2022-10-18T05:37:05;16.56;90.23
65058;HTU21D;51644;51.068;5.860;2022-10-18T05:38:04;16.57;90.21
65058;HTU21D;51644;51.068;5.860;2022-10-18T05:39:03;16.58;90.16
65058;HTU21D;51644;51.068;5.860;2022-10-18T05:40:03;16.58;90.08
65058;HTU21D;51644;51.068;5.860;2022-10-18T05:41:03;16.59;90.03
65058;HTU21D;51644;51.068;5.860;2022-10-18T05:42:01;16.60;90.01
65058;HTU21D;51644;51.068;5.860;2022-10-18T05:43:00;16.61;89.99
65058;HTU21D;51644;51.068;5.860;2022-10-18T05:44:03;16.61;90.02
65058;HTU21D;51644;51.068;5.860;2022-10-18T05:45:02;16.62;89.97
65058;HTU21D;51644;51.068;5.860;2022-10-18T05:46:01;16.63;89.89
65058;HTU21D;51644;51.068;5.860;2022-10-18T05:46:59;16.61;89.89
65058;HTU21D;51644;51.068;5.860;2022-10-18T05:48:00;16.61;89.87
65058;HTU21D;51644;51.068;5.860;2022-10-18T05:48:59;16.63;89.89
65058;HTU21D;51644;51.068;5.860;2022-10-18T05:49:57;16.64;89.89
65058;HTU21D;51644;51.068;5.860;2022-10-18T05:51:00;16.62;89.92
65058;HTU21D;51644;51.068;5.860;2022-10-18T05:51:59;16.63;89.95
65058;HTU21D;51644;51.068;5.860;2022-10-18T05:52:57;16.63;89.95
65058;HTU21D;51644;51.068;5.860;2022-10-18T05:53:56;16.61;90.01
65058;HTU21D;51644;51.068;5.860;2022-10-18T05:54:54;16.60;90.05
65058;HTU21D;51644;51.068;5.860;2022-10-18T05:55:53;16.61;90.12
65058;HTU21D;51644;51.068;5.860;2022-10-18T05:56:52;16.60;90.15
65058;HTU21D;51644;51.068;5.860;2022-10-18T05:57:50;16.59;90.21
65058;HTU21D;51644;51.068;5.860;2022-10-18T05:58:50;16.58;90.27
65058;HTU21D;51644;51.068;5.860;2022-10-18T05:59:48;16.59;90.27
65058;HTU21D;51644;51.068;5.860;2022-10-18T06:00:47;16.59;90.30
65058;HTU21D;51644;51.068;5.860;2022-10-18T06:01:46;16.60;90.33
65058;HTU21D;51644;51.068;5.860;2022-10-18T06:02:44;16.61;90.28
65058;HTU21D;51644;51.068;5.860;2022-10-18T06:03:43;16.62;90.20
65058;HTU21D;51644;51.068;5.860;2022-10-18T06:04:41;16.65;90.12
65058;HTU21D;51644;51.068;5.860;2022-10-18T06:05:40;16.67;90.02
65058;HTU21D;51644;51.068;5.860;2022-10-18T06:06:38;16.70;89.94
65058;HTU21D;51644;51.068;5.860;2022-10-18T06:07:48;16.71;89.84
65058;HTU21D;51644;51.068;5.860;2022-10-18T06:08:48;16.71;89.79
65058;HTU21D;51644;51.068;5.860;2022-10-18T06:09:46;16.74;89.74
65058;HTU21D;51644;51.068;5.860;2022-10-18T06:10:45;16.75;89.71
65058;HTU21D;51644;51.068;5.860;2022-10-18T06:11:44;16.76;89.68
65058;HTU21D;51644;51.068;5.860;2022-10-18T06:12:43;16.77;89.62
65058;HTU21D;51644;51.068;5.860;2022-10-18T06:13:44;16.79;89.57
65058;HTU21D;51644;51.068;5.860;2022-10-18T06:14:43;16.79;89.53
65058;HTU21D;51644;51.068;5.860;2022-10-18T06:15:42;16.81;89.46
65058;HTU21D;51644;51.068;5.860;2022-10-18T06:16:40;16.82;89.33
65058;HTU21D;51644;51.068;5.860;2022-10-18T06:17:39;16.85;89.20
65058;HTU21D;51644;51.068;5.860;2022-10-18T06:18:38;16.87;89.12
65058;HTU21D;51644;51.068;5.860;2022-10-18T06:19:37;16.88;89.05
65058;HTU21D;51644;51.068;5.860;2022-10-18T06:20:38;16.87;89.01
65058;HTU21D;51644;51.068;5.860;2022-10-18T06:21:37;16.90;88.97
65058;HTU21D;51644;51.068;5.860;2022-10-18T06:22:35;16.92;88.89
65058;HTU21D;51644;51.068;5.860;2022-10-18T06:23:35;16.92;88.80
65058;HTU21D;51644;51.068;5.860;2022-10-18T06:24:34;16.93;88.68
65058;HTU21D;51644;51.068;5.860;2022-10-18T06:25:32;16.95;88.64
65058;HTU21D;51644;51.068;5.860;2022-10-18T06:26:31;16.95;88.61
65058;HTU21D;51644;51.068;5.860;2022-10-18T06:27:33;16.98;88.57
65058;HTU21D;51644;51.068;5.860;2022-10-18T06:28:36;16.98;88.53
65058;HTU21D;51644;51.068;5.860;2022-10-18T06:29:49;16.96;88.51
65058;HTU21D;51644;51.068;5.860;2022-10-18T06:30:48;16.98;88.50
65058;HTU21D;51644;51.068;5.860;2022-10-18T06:31:49;16.95;88.53
65058;HTU21D;51644;51.068;5.860;2022-10-18T06:32:48;16.96;88.60
65058;HTU21D;51644;51.068;5.860;2022-10-18T06:33:49;16.94;88.65
65058;HTU21D;51644;51.068;5.860;2022-10-18T06:34:48;16.95;88.67
65058;HTU21D;51644;51.068;5.860;2022-10-18T06:35:57;16.96;88.69
65058;HTU21D;51644;51.068;5.860;2022-10-18T06:36:56;16.95;88.68
65058;HTU21D;51644;51.068;5.860;2022-10-18T06:37:55;16.96;88.67
65058;HTU21D;51644;51.068;5.860;2022-10-18T06:38:55;16.96;88.65
65058;HTU21D;51644;51.068;5.860;2022-10-18T06:39:56;16.99;88.62